sensor_id;sensor_type;location;lat;lon;timestamp;temperature;humidity
1137;DHT22;557;48.466;7.950;2024-03-23T00:54:07;12.10;99.90
1137;DHT22;557;48.466;7.950;2024-03-23T00:56:32;12.10;99.90
1137;DHT22;557;48.466;7.950;2024-03-23T00:58:59;12.10;27.30
1137;DHT22;557;48.466;7.950;2024-03-23T01:01:25;12.10;99.90
1137;DHT22;557;48.466;7.950;2024-03-23T01:03:52;12.10;99.90
1137;DHT22;557;48.466;7.950;2024-03-23T01:06:18;12.10;99.90
1137;DHT22;557;48.466;7.950;2024-03-23T01:08:45;12.00;99.90
1137;DHT22;557;48.466;7.950;2024-03-23T01:11:12;12.00;99.90
1137;DHT22;557;48.466;7.950;2024-03-23T01:13:39;12.00;99.90
1137;DHT22;557;48.466;7.950;2024-03-23T01:16:05;12.00;99.90
1137;DHT22;557;48.466;7.950;2024-03-23T01:18:32;12.00;99.90
1137;DHT22;557;48.466;7.950;2024-03-23T01:20:59;12.00;99.90
1137;DHT22;557;48.466;7.950;2024-03-23T01:23:26;12.10;1.00
1137;DHT22;557;48.466;7.950;2024-03-23T01:25:52;12.10;79.60
1137;DHT22;557;48.466;7.950;2024-03-23T01:28:21;12.10;1.00
1137;DHT22;557;48.466;7.950;2024-03-23T01:30:47;12.00;99.90
1137;DHT22;557;48.466;7.950;2024-03-23T01:33:14;12.00;99.90
1137;DHT22;557;48.466;7.950;2024-03-23T01:35:41;12.00;99.90
1137;DHT22;557;48.466;7.950;2024-03-23T01:38:08;11.90;99.90
1137;DHT22;557;48.466;7.950;2024-03-23T01:40:34;11.90;99.90
1137;DHT22;557;48.466;7.950;2024-03-23T01:43:04;11.90;1.00
1137;DHT22;557;48.466;7.950;2024-03-23T01:45:31;11.70;97.80
1137;DHT22;557;48.466;7.950;2024-03-23T01:47:58;11.70;99.90
1137;DHT22;557;48.466;7.950;2024-03-23T01:50:35;11.70;45.90
1137;DHT22;557;48.466;7.950;2024-03-23T01:53:02;11.80;90.20
1137;DHT22;557;48.466;7.950;2024-03-23T01:55:28;11.80;1.00
1137;DHT22;557;48.466;7.950;2024-03-23T01:57:56;11.90;1.00
1137;DHT22;557;48.466;7.950;2024-03-23T02:00:23;12.00;1.00
1137;DHT22;557;48.466;7.950;2024-03-23T02:02:51;12.10;1.00
1137;DHT22;557;48.466;7.950;2024-03-23T02:05:17;12.10;1.00
1137;DHT22;557;48.466;7.950;2024-03-23T02:07:44;12.10;1.00
1137;DHT22;557;48.466;7.950;2024-03-23T02:10:10;12.10;1.00
1137;DHT22;557;48.466;7.950;2024-03-23T02:12:38;12.00;1.00
1137;DHT22;557;48.466;7.950;2024-03-23T02:15:05;12.00;48.80
1137;DHT22;557;48.466;7.950;2024-03-23T02:17:34;12.00;99.90
1137;DHT22;557;48.466;7.950;2024-03-23T02:20:02;12.00;99.90
1137;DHT22;557;48.466;7.950;2024-03-23T02:22:36;11.90;99.90
1137;DHT22;557;48.466;7.950;2024-03-23T02:25:04;12.00;57.20
1137;DHT22;557;48.466;7.950;2024-03-23T02:27:31;12.10;21.10
1137;DHT22;557;48.466;7.950;2024-03-23T02:29:57;12.10;1.00
1137;DHT22;557;48.466;7.950;2024-03-23T02:32:23;12.10;1.00
1137;DHT22;557;48.466;7.950;2024-03-23T02:34:49;12.10;1.00
1137;DHT22;557;48.466;7.950;2024-03-23T02:37:16;12.20;1.00
1137;DHT22;557;48.466;7.950;2024-03-23T02:39:42;12.10;1.00
1137;DHT22;557;48.466;7.950;2024-03-23T02:42:10;12.10;1.00
1137;DHT22;557;48.466;7.950;2024-03-23T02:44:36;12.00;99.90
1137;DHT22;557;48.466;7.950;2024-03-23T02:47:03;11.90;99.90
1137;DHT22;557;48.466;7.950;2024-03-23T02:49:39;11.80;99.90
1137;DHT22;557;48.466;7.950;2024-03-23T02:52:06;11.70;99.90
1137;DHT22;557;48.466;7.950;2024-03-23T02:54:32;11.70;1.00
1137;DHT22;557;48.466;7.950;2024-03-23T02:56:58;11.60;1.00
1137;DHT22;557;48.466;7.950;2024-03-23T02:59:26;11.60;1.00
1137;DHT22;557;48.466;7.950;2024-03-23T03:01:53;11.50;1.00
1137;DHT22;557;48.466;7.950;2024-03-23T03:04:18;11.60;1.00
1137;DHT22;557;48.466;7.950;2024-03-23T03:06:47;11.60;1.00
1137;DHT22;557;48.466;7.950;2024-03-23T03:09:13;11.60;1.00
1137;DHT22;557;48.466;7.950;2024-03-23T03:11:40;11.50;1.00
1137;DHT22;557;48.466;7.950;2024-03-23T03:14:05;11.50;1.00
1137;DHT22;557;48.466;7.950;2024-03-23T03:16:34;11.50;1.00
1137;DHT22;557;48.466;7.950;2024-03-23T03:19:01;11.60;1.00
1137;DHT22;557;48.466;7.950;2024-03-23T03:21:27;11.80;1.00
1137;DHT22;557;48.466;7.950;2024-03-23T03:23:53;11.90;99.90
1137;DHT22;557;48.466;7.950;2024-03-23T03:26:22;12.00;99.90
1137;DHT22;557;48.466;7.950;2024-03-23T03:28:48;12.10;99.90
1137;DHT22;557;48.466;7.950;2024-03-23T03:31:15;12.10;99.90
1137;DHT22;557;48.466;7.950;2024-03-23T03:33:43;12.20;99.90
1137;DHT22;557;48.466;7.950;2024-03-23T03:36:10;12.10;99.90
1137;DHT22;557;48.466;7.950;2024-03-23T03:38:36;12.10;99.90
1137;DHT22;557;48.466;7.950;2024-03-23T03:41:04;12.20;99.90
1137;DHT22;557;48.466;7.950;2024-03-23T03:43:31;12.20;99.90
1137;DHT22;557;48.466;7.950;2024-03-23T03:46:00;12.30;99.90
1137;DHT22;557;48.466;7.950;2024-03-23T03:48:27;12.20;99.90
1137;DHT22;557;48.466;7.950;2024-03-23T03:50:55;12.20;99.90
1137;DHT22;557;48.466;7.950;2024-03-23T03:53:21;12.30;99.90
1137;DHT22;557;48.466;7.950;2024-03-23T03:55:48;12.30;1.00
1137;DHT22;557;48.466;7.950;2024-03-23T03:58:14;12.10;1.00
1137;DHT22;557;48.466;7.950;2024-03-23T04:00:44;11.80;26.00
1137;DHT22;557;48.466;7.950;2024-03-23T04:03:10;11.70;71.50
1137;DHT22;557;48.466;7.950;2024-03-23T04:05:37;11.50;83.30
1137;DHT22;557;48.466;7.950;2024-03-23T04:08:07;11.50;99.90
1137;DHT22;557;48.466;7.950;2024-03-23T04:10:34;11.40;99.90
1137;DHT22;557;48.466;7.950;2024-03-23T04:13:00;11.30;99.90
1137;DHT22;557;48.466;7.950;2024-03-23T04:15:29;11.20;99.90
1137;DHT22;557;48.466;7.950;2024-03-23T04:17:55;11.20;99.90
1137;DHT22;557;48.466;7.950;2024-03-23T04:20:22;11.20;99.90
1137;DHT22;557;48.466;7.950;2024-03-23T04:22:48;11.20;99.90
1137;DHT22;557;48.466;7.950;2024-03-23T04:25:16;11.10;99.90
1137;DHT22;557;48.466;7.950;2024-03-23T04:27:45;11.10;99.90
1137;DHT22;557;48.466;7.950;2024-03-23T04:30:12;11.10;99.90
1137;DHT22;557;48.466;7.950;2024-03-23T04:32:38;11.10;99.90
1137;DHT22;557;48.466;7.950;2024-03-23T04:35:06;11.10;99.90
1137;DHT22;557;48.466;7.950;2024-03-23T04:37:32;11.00;99.90
1137;DHT22;557;48.466;7.950;2024-03-23T04:40:00;11.00;99.90
1137;DHT22;557;48.466;7.950;2024-03-23T04:42:28;10.90;99.90
1137;DHT22;557;48.466;7.950;2024-03-23T04:44:56;10.90;99.90
1137;DHT22;557;48.466;7.950;2024-03-23T04:47:23;10.80;99.90
1137;DHT22;557;48.466;7.950;2024-03-23T04:49:50;10.80;99.90
1137;DHT22;557;48.466;7.950;2024-03-23T04:52:17;10.80;99.90
1137;DHT22;557;48.466;7.950;2024-03-23T04:54:45;10.80;99.90
1137;DHT22;557;48.466;7.950;2024-03-23T04:57:11;10.80;99.90
1137;DHT22;557;48.466;7.950;2024-03-23T04:59:40;10.70;99.90
1137;DHT22;557;48.466;7.950;2024-03-23T05:02:05;10.70;99.90
1137;DHT22;557;48.466;7.950;2024-03-23T05:04:32;10.70;99.90
1137;DHT22;557;48.466;7.950;2024-03-23T05:06:58;10.60;99.90
1137;DHT22;557;48.466;7.950;2024-03-23T05:09:25;10.70;99.90
1137;DHT22;557;48.466;7.950;2024-03-23T05:11:55;10.60;99.90
1137;DHT22;557;48.466;7.950;2024-03-23T05:14:22;10.60;99.90
1137;DHT22;557;48.466;7.950;2024-03-23T05:16:51;10.60;99.90
1137;DHT22;557;48.466;7.950;2024-03-23T05:19:18;10.60;99.90
1137;DHT22;557;48.466;7.950;2024-03-23T05:21:44;10.60;99.90
1137;DHT22;557;48.466;7.950;2024-03-23T05:24:12;10.50;99.90
1137;DHT22;557;48.466;7.950;2024-03-23T05:26:38;10.40;99.90
1137;DHT22;557;48.466;7.950;2024-03-23T05:29:05;10.40;99.90
1137;DHT22;557;48.466;7.950;2024-03-23T05:31:36;10.30;99.90
1137;DHT22;557;48.466;7.950;2024-03-23T05:34:04;10.20;99.90
1137;DHT22;557;48.466;7.950;2024-03-23T05:36:30;10.10;99.90
1137;DHT22;557;48.466;7.950;2024-03-23T05:38:58;10.00;88.80
1137;DHT22;557;48.466;7.950;2024-03-23T05:41:24;10.00;99.90
1137;DHT22;557;48.466;7.950;2024-03-23T05:43:51;9.90;99.90
1137;DHT22;557;48.466;7.950;2024-03-23T05:46:17;9.90;95.40
1137;DHT22;557;48.466;7.950;2024-03-23T05:48:44;9.90;90.20
1137;DHT22;557;48.466;7.950;2024-03-23T05:51:11;9.90;83.70
1137;DHT22;557;48.466;7.950;2024-03-23T05:53:38;9.90;38.50
1137;DHT22;557;48.466;7.950;2024-03-23T05:56:04;9.80;2.40
1137;DHT22;557;48.466;7.950;2024-03-23T05:58:31;9.80;6.40
1137;DHT22;557;48.466;7.950;2024-03-23T06:00:58;9.70;1.00
1137;DHT22;557;48.466;7.950;2024-03-23T06:03:25;9.70;1.00
1137;DHT22;557;48.466;7.950;2024-03-23T06:05:51;9.60;1.00
1137;DHT22;557;48.466;7.950;2024-03-23T06:08:20;9.70;7.50
1137;DHT22;557;48.466;7.950;2024-03-23T06:10:46;9.60;1.00
1137;DHT22;557;48.466;7.950;2024-03-23T06:13:13;9.60;15.30
1137;DHT22;557;48.466;7.950;2024-03-23T06:15:40;9.60;1.00
1137;DHT22;557;48.466;7.950;2024-03-23T06:18:06;9.50;17.90
1137;DHT22;557;48.466;7.950;2024-03-23T06:20:33;9.50;35.70
1137;DHT22;557;48.466;7.950;2024-03-23T06:23:00;9.50;79.20
1137;DHT22;557;48.466;7.950;2024-03-23T06:25:27;9.40;89.50
1137;DHT22;557;48.466;7.950;2024-03-23T06:27:54;9.50;66.50
1137;DHT22;557;48.466;7.950;2024-03-23T06:30:20;9.50;24.40
1137;DHT22;557;48.466;7.950;2024-03-23T06:32:47;9.60;75.10
1137;DHT22;557;48.466;7.950;2024-03-23T06:35:13;9.60;57.70
1137;DHT22;557;48.466;7.950;2024-03-23T06:37:40;9.60;46.40
1137;DHT22;557;48.466;7.950;2024-03-23T06:40:07;9.50;65.90
1137;DHT22;557;48.466;7.950;2024-03-23T06:42:37;9.50;85.80
1137;DHT22;557;48.466;7.950;2024-03-23T06:45:03;9.50;97.40
1137;DHT22;557;48.466;7.950;2024-03-23T06:47:30;9.50;94.00
1137;DHT22;557;48.466;7.950;2024-03-23T06:49:56;9.50;99.90
1137;DHT22;557;48.466;7.950;2024-03-23T06:52:23;9.40;70.70
1137;DHT22;557;48.466;7.950;2024-03-23T06:54:49;9.40;88.10
1137;DHT22;557;48.466;7.950;2024-03-23T06:57:16;9.40;97.80
1137;DHT22;557;48.466;7.950;2024-03-23T06:59:43;9.40;99.90
1137;DHT22;557;48.466;7.950;2024-03-23T07:02:10;9.40;99.90
1137;DHT22;557;48.466;7.950;2024-03-23T07:04:36;9.40;97.30
1137;DHT22;557;48.466;7.950;2024-03-23T07:07:05;9.30;44.30
1137;DHT22;557;48.466;7.950;2024-03-23T07:09:31;9.30;1.00
1137;DHT22;557;48.466;7.950;2024-03-23T07:11:58;9.40;15.00
1137;DHT22;557;48.466;7.950;2024-03-23T07:14:24;9.40;1.00
1137;DHT22;557;48.466;7.950;2024-03-23T07:16:52;9.50;1.00
1137;DHT22;557;48.466;7.950;2024-03-23T07:19:18;9.50;1.00
1137;DHT22;557;48.466;7.950;2024-03-23T07:21:45;9.40;1.00
1137;DHT22;557;48.466;7.950;2024-03-23T07:24:11;9.40;1.00
1137;DHT22;557;48.466;7.950;2024-03-23T07:26:38;9.30;1.00
1137;DHT22;557;48.466;7.950;2024-03-23T07:29:04;9.30;1.00
1137;DHT22;557;48.466;7.950;2024-03-23T07:31:31;9.30;1.00
1137;DHT22;557;48.466;7.950;2024-03-23T07:33:58;9.30;1.00
1137;DHT22;557;48.466;7.950;2024-03-23T07:36:25;9.20;1.00
1137;DHT22;557;48.466;7.950;2024-03-23T07:38:51;9.30;1.00
1137;DHT22;557;48.466;7.950;2024-03-23T07:41:19;9.30;1.00
1137;DHT22;557;48.466;7.950;2024-03-23T07:43:46;9.30;1.00
1137;DHT22;557;48.466;7.950;2024-03-23T07:46:16;9.20;54.00
1137;DHT22;557;48.466;7.950;2024-03-23T07:48:42;9.20;12.70
1137;DHT22;557;48.466;7.950;2024-03-23T07:51:17;9.20;99.90
1137;DHT22;557;48.466;7.950;2024-03-23T07:53:44;9.40;99.90
1137;DHT22;557;48.466;7.950;2024-03-23T07:56:11;9.50;1.00
1137;DHT22;557;48.466;7.950;2024-03-23T07:58:38;9.50;99.90
1137;DHT22;557;48.466;7.950;2024-03-23T08:01:06;9.60;99.90
1137;DHT22;557;48.466;7.950;2024-03-23T08:03:33;9.60;99.90
1137;DHT22;557;48.466;7.950;2024-03-23T08:06:07;9.70;1.00
1137;DHT22;557;48.466;7.950;2024-03-23T08:08:35;10.10;99.90
1137;DHT22;557;48.466;7.950;2024-03-23T08:11:02;10.30;99.90
1137;DHT22;557;48.466;7.950;2024-03-23T08:13:29;10.30;1.00
1137;DHT22;557;48.466;7.950;2024-03-23T08:15:59;10.10;36.10
1137;DHT22;557;48.466;7.950;2024-03-23T08:18:25;10.00;99.90
1137;DHT22;557;48.466;7.950;2024-03-23T08:20:56;9.90;99.90
1137;DHT22;557;48.466;7.950;2024-03-23T08:23:23;9.90;99.90
1137;DHT22;557;48.466;7.950;2024-03-23T08:25:51;10.00;99.90
1137;DHT22;557;48.466;7.950;2024-03-23T08:28:17;10.10;1.00
1137;DHT22;557;48.466;7.950;2024-03-23T08:30:44;10.10;1.00
1137;DHT22;557;48.466;7.950;2024-03-23T08:33:10;10.00;1.00
1137;DHT22;557;48.466;7.950;2024-03-23T08:35:37;10.10;1.00
1137;DHT22;557;48.466;7.950;2024-03-23T08:38:03;10.30;1.00
1137;DHT22;557;48.466;7.950;2024-03-23T08:40:30;10.40;1.00
1137;DHT22;557;48.466;7.950;2024-03-23T08:42:57;10.60;1.00
1137;DHT22;557;48.466;7.950;2024-03-23T08:45:24;10.60;1.00
1137;DHT22;557;48.466;7.950;2024-03-23T08:47:50;10.60;1.00
1137;DHT22;557;48.466;7.950;2024-03-23T08:50:19;10.60;1.00
1137;DHT22;557;48.466;7.950;2024-03-23T08:52:45;10.50;1.00
1137;DHT22;557;48.466;7.950;2024-03-23T08:55:12;10.40;1.00
1137;DHT22;557;48.466;7.950;2024-03-23T08:57:39;10.40;1.00
1137;DHT22;557;48.466;7.950;2024-03-23T09:00:08;10.40;1.00
1137;DHT22;557;48.466;7.950;2024-03-23T09:02:37;10.40;1.00
1137;DHT22;557;48.466;7.950;2024-03-23T09:05:04;10.40;1.00
1137;DHT22;557;48.466;7.950;2024-03-23T09:07:31;10.50;1.00
1137;DHT22;557;48.466;7.950;2024-03-23T09:09:57;10.60;1.00
1137;DHT22;557;48.466;7.950;2024-03-23T09:12:23;10.60;99.90
1137;DHT22;557;48.466;7.950;2024-03-23T09:14:50;10.60;1.00
1137;DHT22;557;48.466;7.950;2024-03-23T09:17:18;10.70;99.90
1137;DHT22;557;48.466;7.950;2024-03-23T09:19:44;10.70;99.90
1137;DHT22;557;48.466;7.950;2024-03-23T09:22:10;10.70;99.90
1137;DHT22;557;48.466;7.950;2024-03-23T09:24:41;10.90;99.90
1137;DHT22;557;48.466;7.950;2024-03-23T09:27:08;11.10;99.90
1137;DHT22;557;48.466;7.950;2024-03-23T09:29:34;11.30;99.90
1137;DHT22;557;48.466;7.950;2024-03-23T09:32:00;11.30;99.90
1137;DHT22;557;48.466;7.950;2024-03-23T09:34:28;11.20;99.90
1137;DHT22;557;48.466;7.950;2024-03-23T09:36:54;11.10;99.90
1137;DHT22;557;48.466;7.950;2024-03-23T09:39:21;11.00;99.90
1137;DHT22;557;48.466;7.950;2024-03-23T09:41:47;10.90;99.90
1137;DHT22;557;48.466;7.950;2024-03-23T09:44:14;11.00;99.90
1137;DHT22;557;48.466;7.950;2024-03-23T09:46:40;11.60;99.90
1137;DHT22;557;48.466;7.950;2024-03-23T09:49:07;12.30;99.90
1137;DHT22;557;48.466;7.950;2024-03-23T09:51:37;12.10;99.90
1137;DHT22;557;48.466;7.950;2024-03-23T09:54:04;11.80;99.90
1137;DHT22;557;48.466;7.950;2024-03-23T09:56:29;11.60;99.90
1137;DHT22;557;48.466;7.950;2024-03-23T09:59:03;10.80;99.90
1137;DHT22;557;48.466;7.950;2024-03-23T10:01:30;9.90;99.90
1137;DHT22;557;48.466;7.950;2024-03-23T10:03:57;9.60;1.00
1137;DHT22;557;48.466;7.950;2024-03-23T10:06:23;9.60;3.60
1137;DHT22;557;48.466;7.950;2024-03-23T10:09:01;9.50;1.00
1137;DHT22;557;48.466;7.950;2024-03-23T10:11:30;9.20;1.00
1137;DHT22;557;48.466;7.950;2024-03-23T10:13:57;9.00;99.90
1137;DHT22;557;48.466;7.950;2024-03-23T10:16:27;8.90;1.00
1137;DHT22;557;48.466;7.950;2024-03-23T10:18:54;8.80;99.90
1137;DHT22;557;48.466;7.950;2024-03-23T10:21:23;8.60;44.40
1137;DHT22;557;48.466;7.950;2024-03-23T10:23:50;8.50;1.00
1137;DHT22;557;48.466;7.950;2024-03-23T10:26:19;8.30;1.00
1137;DHT22;557;48.466;7.950;2024-03-23T10:28:56;7.90;1.00
1137;DHT22;557;48.466;7.950;2024-03-23T10:31:26;7.40;22.50
1137;DHT22;557;48.466;7.950;2024-03-23T10:33:53;6.70;2.90
1137;DHT22;557;48.466;7.950;2024-03-23T10:36:23;6.20;99.90
1137;DHT22;557;48.466;7.950;2024-03-23T10:38:52;5.90;99.90
1137;DHT22;557;48.466;7.950;2024-03-23T10:41:19;5.90;99.90
1137;DHT22;557;48.466;7.950;2024-03-23T10:43:48;5.90;99.90
1137;DHT22;557;48.466;7.950;2024-03-23T10:46:14;6.10;99.90
1137;DHT22;557;48.466;7.950;2024-03-23T10:48:41;6.30;99.90
1137;DHT22;557;48.466;7.950;2024-03-23T10:51:09;6.40;99.90
1137;DHT22;557;48.466;7.950;2024-03-23T10:53:36;6.70;99.90
1137;DHT22;557;48.466;7.950;2024-03-23T10:56:03;6.90;99.90
1137;DHT22;557;48.466;7.950;2024-03-23T10:58:36;7.10;99.90
1137;DHT22;557;48.466;7.950;2024-03-23T11:01:03;7.20;99.90
1137;DHT22;557;48.466;7.950;2024-03-23T11:03:32;7.20;59.80
1137;DHT22;557;48.466;7.950;2024-03-23T11:05:59;7.20;99.90
1137;DHT22;557;48.466;7.950;2024-03-23T11:08:30;7.30;91.20
1137;DHT22;557;48.466;7.950;2024-03-23T11:11:12;7.30;99.90
1137;DHT22;557;48.466;7.950;2024-03-23T11:13:40;7.30;99.90
1137;DHT22;557;48.466;7.950;2024-03-23T11:16:16;7.30;99.90
1137;DHT22;557;48.466;7.950;2024-03-23T11:18:44;7.40;99.90
1137;DHT22;557;48.466;7.950;2024-03-23T11:21:10;7.60;91.20
1137;DHT22;557;48.466;7.950;2024-03-23T11:23:37;7.50;90.80
1137;DHT22;557;48.466;7.950;2024-03-23T11:26:07;7.50;49.80
1137;DHT22;557;48.466;7.950;2024-03-23T11:28:34;7.50;86.60
1137;DHT22;557;48.466;7.950;2024-03-23T11:31:01;7.60;99.90
1137;DHT22;557;48.466;7.950;2024-03-23T11:33:35;7.60;92.10
1137;DHT22;557;48.466;7.950;2024-03-23T11:36:01;7.60;97.60
1137;DHT22;557;48.466;7.950;2024-03-23T11:38:28;7.50;69.20
1137;DHT22;557;48.466;7.950;2024-03-23T11:40:54;7.50;70.50
1137;DHT22;557;48.466;7.950;2024-03-23T11:43:21;7.60;95.70
1137;DHT22;557;48.466;7.950;2024-03-23T11:45:48;7.90;96.30
1137;DHT22;557;48.466;7.950;2024-03-23T11:48:20;8.60;99.90
1137;DHT22;557;48.466;7.950;2024-03-23T11:50:47;9.40;58.70
1137;DHT22;557;48.466;7.950;2024-03-23T11:53:16;10.10;1.00
1137;DHT22;557;48.466;7.950;2024-03-23T11:55:43;10.50;1.00
1137;DHT22;557;48.466;7.950;2024-03-23T11:58:11;11.20;1.00
1137;DHT22;557;48.466;7.950;2024-03-23T12:00:37;11.60;1.00
1137;DHT22;557;48.466;7.950;2024-03-23T12:03:05;11.70;1.00
1137;DHT22;557;48.466;7.950;2024-03-23T12:05:32;11.10;55.50
1137;DHT22;557;48.466;7.950;2024-03-23T12:08:15;10.60;99.90
1137;DHT22;557;48.466;7.950;2024-03-23T12:10:44;10.20;96.80
1137;DHT22;557;48.466;7.950;2024-03-23T12:13:11;9.90;99.90
1137;DHT22;557;48.466;7.950;2024-03-23T12:15:37;9.40;1.00
1137;DHT22;557;48.466;7.950;2024-03-23T12:18:07;9.00;1.00
1137;DHT22;557;48.466;7.950;2024-03-23T12:20:37;8.90;1.00
1137;DHT22;557;48.466;7.950;2024-03-23T12:23:09;8.90;1.00
1137;DHT22;557;48.466;7.950;2024-03-23T12:25:35;8.90;1.00
1137;DHT22;557;48.466;7.950;2024-03-23T12:28:02;9.00;1.00
1137;DHT22;557;48.466;7.950;2024-03-23T12:30:28;9.00;1.00
1137;DHT22;557;48.466;7.950;2024-03-23T12:32:55;9.10;1.00
1137;DHT22;557;48.466;7.950;2024-03-23T12:35:22;9.20;99.90
1137;DHT22;557;48.466;7.950;2024-03-23T12:37:50;9.70;1.00
1137;DHT22;557;48.466;7.950;2024-03-23T12:40:16;10.00;1.00
1137;DHT22;557;48.466;7.950;2024-03-23T12:42:43;10.00;99.90
1137;DHT22;557;48.466;7.950;2024-03-23T12:45:09;9.90;1.00
1137;DHT22;557;48.466;7.950;2024-03-23T12:47:36;9.90;1.00
1137;DHT22;557;48.466;7.950;2024-03-23T12:50:03;9.90;1.00
1137;DHT22;557;48.466;7.950;2024-03-23T12:52:29;9.80;99.90
1137;DHT22;557;48.466;7.950;2024-03-23T12:54:58;9.80;99.90
1137;DHT22;557;48.466;7.950;2024-03-23T12:57:24;9.90;99.90
1137;DHT22;557;48.466;7.950;2024-03-23T12:59:51;10.10;26.20
1137;DHT22;557;48.466;7.950;2024-03-23T13:02:18;10.10;1.00
1137;DHT22;557;48.466;7.950;2024-03-23T13:04:46;10.20;1.00
1137;DHT22;557;48.466;7.950;2024-03-23T13:07:13;10.70;1.00
1137;DHT22;557;48.466;7.950;2024-03-23T13:09:43;12.30;99.90
1137;DHT22;557;48.466;7.950;2024-03-23T13:12:17;13.70;99.90
1137;DHT22;557;48.466;7.950;2024-03-23T13:14:44;14.60;99.90
1137;DHT22;557;48.466;7.950;2024-03-23T13:17:10;14.70;99.90
1137;DHT22;557;48.466;7.950;2024-03-23T13:19:37;14.70;99.90
1137;DHT22;557;48.466;7.950;2024-03-23T13:22:03;14.40;99.90
1137;DHT22;557;48.466;7.950;2024-03-23T13:24:30;13.40;99.90
1137;DHT22;557;48.466;7.950;2024-03-23T13:26:57;12.50;99.90
1137;DHT22;557;48.466;7.950;2024-03-23T13:29:25;11.90;99.90
1137;DHT22;557;48.466;7.950;2024-03-23T13:31:52;11.20;99.90
1137;DHT22;557;48.466;7.950;2024-03-23T13:34:19;10.70;99.90
1137;DHT22;557;48.466;7.950;2024-03-23T13:36:45;10.40;99.90
1137;DHT22;557;48.466;7.950;2024-03-23T13:39:14;10.20;99.90
1137;DHT22;557;48.466;7.950;2024-03-23T13:41:41;9.90;99.90
1137;DHT22;557;48.466;7.950;2024-03-23T13:44:09;9.70;1.00
1137;DHT22;557;48.466;7.950;2024-03-23T13:46:38;9.40;1.00
1137;DHT22;557;48.466;7.950;2024-03-23T13:49:05;10.10;1.00
1137;DHT22;557;48.466;7.950;2024-03-23T13:51:31;11.00;99.90
1137;DHT22;557;48.466;7.950;2024-03-23T13:53:58;11.50;1.00
1137;DHT22;557;48.466;7.950;2024-03-23T13:56:26;11.90;1.00
1137;DHT22;557;48.466;7.950;2024-03-23T13:58:53;11.80;99.90
1137;DHT22;557;48.466;7.950;2024-03-23T14:01:19;11.60;99.90
1137;DHT22;557;48.466;7.950;2024-03-23T14:03:48;11.20;99.90
1137;DHT22;557;48.466;7.950;2024-03-23T14:06:13;11.90;99.90
1137;DHT22;557;48.466;7.950;2024-03-23T14:08:40;12.50;99.90
1137;DHT22;557;48.466;7.950;2024-03-23T14:11:07;12.20;99.90
1137;DHT22;557;48.466;7.950;2024-03-23T14:13:35;11.50;99.90
1137;DHT22;557;48.466;7.950;2024-03-23T14:16:01;11.00;99.90
1137;DHT22;557;48.466;7.950;2024-03-23T14:18:29;10.70;99.90
1137;DHT22;557;48.466;7.950;2024-03-23T14:20:58;10.30;99.90
1137;DHT22;557;48.466;7.950;2024-03-23T14:23:25;10.00;99.90
1137;DHT22;557;48.466;7.950;2024-03-23T14:25:54;9.60;99.90
1137;DHT22;557;48.466;7.950;2024-03-23T14:28:22;9.30;99.90
1137;DHT22;557;48.466;7.950;2024-03-23T14:30:48;9.30;1.00
1137;DHT22;557;48.466;7.950;2024-03-23T14:33:15;9.40;1.00
1137;DHT22;557;48.466;7.950;2024-03-23T14:35:41;9.40;99.90
1137;DHT22;557;48.466;7.950;2024-03-23T14:38:09;9.60;99.90
1137;DHT22;557;48.466;7.950;2024-03-23T14:40:35;9.80;99.90
1137;DHT22;557;48.466;7.950;2024-03-23T14:43:02;10.10;99.90
1137;DHT22;557;48.466;7.950;2024-03-23T14:45:28;10.50;99.90
1137;DHT22;557;48.466;7.950;2024-03-23T14:47:55;10.50;99.90
1137;DHT22;557;48.466;7.950;2024-03-23T14:50:21;10.40;99.90
1137;DHT22;557;48.466;7.950;2024-03-23T14:52:48;10.10;99.90
1137;DHT22;557;48.466;7.950;2024-03-23T14:55:15;9.80;99.90
1137;DHT22;557;48.466;7.950;2024-03-23T14:57:42;9.60;99.90
1137;DHT22;557;48.466;7.950;2024-03-23T15:00:09;9.50;99.90
1137;DHT22;557;48.466;7.950;2024-03-23T15:06:20;9.40;99.90
1137;DHT22;557;48.466;7.950;2024-03-23T15:08:47;9.30;99.90
1137;DHT22;557;48.466;7.950;2024-03-23T15:11:16;9.20;99.90
1137;DHT22;557;48.466;7.950;2024-03-23T15:13:44;9.30;1.00
1137;DHT22;557;48.466;7.950;2024-03-23T15:16:10;9.50;1.00
1137;DHT22;557;48.466;7.950;2024-03-23T15:18:37;9.30;1.00
1137;DHT22;557;48.466;7.950;2024-03-23T15:21:04;9.40;1.00
1137;DHT22;557;48.466;7.950;2024-03-23T15:23:33;9.40;99.90
1137;DHT22;557;48.466;7.950;2024-03-23T15:25:59;9.30;1.00
1137;DHT22;557;48.466;7.950;2024-03-23T15:28:29;9.20;1.00
1137;DHT22;557;48.466;7.950;2024-03-23T15:31:03;9.10;1.00
1137;DHT22;557;48.466;7.950;2024-03-23T15:33:30;9.00;1.00
1137;DHT22;557;48.466;7.950;2024-03-23T15:35:58;8.90;1.00
1137;DHT22;557;48.466;7.950;2024-03-23T15:38:25;8.80;1.00
1137;DHT22;557;48.466;7.950;2024-03-23T15:40:51;8.70;63.10
1137;DHT22;557;48.466;7.950;2024-03-23T15:43:18;8.50;99.90
1137;DHT22;557;48.466;7.950;2024-03-23T15:45:53;8.70;99.90
1137;DHT22;557;48.466;7.950;2024-03-23T15:48:20;9.70;1.00
1137;DHT22;557;48.466;7.950;2024-03-23T15:50:50;10.70;1.00
1137;DHT22;557;48.466;7.950;2024-03-23T15:53:19;11.90;99.90
1137;DHT22;557;48.466;7.950;2024-03-23T15:55:45;11.20;99.90
1137;DHT22;557;48.466;7.950;2024-03-23T15:58:12;9.90;99.90
1137;DHT22;557;48.466;7.950;2024-03-23T16:00:38;9.40;1.00
1137;DHT22;557;48.466;7.950;2024-03-23T16:03:06;9.20;58.30
1137;DHT22;557;48.466;7.950;2024-03-23T16:05:32;8.90;66.20
1137;DHT22;557;48.466;7.950;2024-03-23T16:07:59;8.80;99.90
1137;DHT22;557;48.466;7.950;2024-03-23T16:10:25;8.60;99.90
1137;DHT22;557;48.466;7.950;2024-03-23T16:12:52;8.40;99.90
1137;DHT22;557;48.466;7.950;2024-03-23T16:15:17;8.30;99.90
1137;DHT22;557;48.466;7.950;2024-03-23T16:17:44;8.30;99.90
1137;DHT22;557;48.466;7.950;2024-03-23T16:20:12;8.20;99.90
1137;DHT22;557;48.466;7.950;2024-03-23T16:22:39;8.20;1.00
1137;DHT22;557;48.466;7.950;2024-03-23T16:25:06;8.10;1.00
1137;DHT22;557;48.466;7.950;2024-03-23T16:27:33;7.80;1.00
1137;DHT22;557;48.466;7.950;2024-03-23T16:29:59;7.60;72.00
1137;DHT22;557;48.466;7.950;2024-03-23T16:32:25;7.50;1.00
1137;DHT22;557;48.466;7.950;2024-03-23T16:34:53;7.40;99.90
1137;DHT22;557;48.466;7.950;2024-03-23T16:37:21;7.10;99.90
1137;DHT22;557;48.466;7.950;2024-03-23T16:39:47;6.90;99.90
1137;DHT22;557;48.466;7.950;2024-03-23T16:42:14;6.80;1.00
1137;DHT22;557;48.466;7.950;2024-03-23T16:44:40;6.80;99.90
1137;DHT22;557;48.466;7.950;2024-03-23T16:47:07;6.80;1.00
1137;DHT22;557;48.466;7.950;2024-03-23T16:49:35;6.80;99.90
1137;DHT22;557;48.466;7.950;2024-03-23T16:52:02;6.80;1.00
1137;DHT22;557;48.466;7.950;2024-03-23T16:54:29;6.90;99.90
1137;DHT22;557;48.466;7.950;2024-03-23T16:56:56;7.00;1.00
1137;DHT22;557;48.466;7.950;2024-03-23T16:59:22;7.00;99.90
1137;DHT22;557;48.466;7.950;2024-03-23T17:01:49;7.00;1.00
1137;DHT22;557;48.466;7.950;2024-03-23T17:04:15;7.00;1.00
1137;DHT22;557;48.466;7.950;2024-03-23T17:06:42;7.00;99.90
1137;DHT22;557;48.466;7.950;2024-03-23T17:09:08;7.00;99.90
1137;DHT22;557;48.466;7.950;2024-03-23T17:11:37;7.10;1.00
1137;DHT22;557;48.466;7.950;2024-03-23T17:14:03;7.10;1.00
1137;DHT22;557;48.466;7.950;2024-03-23T17:16:29;7.10;63.20
1137;DHT22;557;48.466;7.950;2024-03-23T17:18:57;7.10;99.90
1137;DHT22;557;48.466;7.950;2024-03-23T17:21:24;7.10;99.90
1137;DHT22;557;48.466;7.950;2024-03-23T17:23:50;7.00;99.90
1137;DHT22;557;48.466;7.950;2024-03-23T17:26:18;7.00;99.90
1137;DHT22;557;48.466;7.950;2024-03-23T17:28:46;7.00;99.90